Time;durP1;ratioP1;P1;durP2;ratioP2;P2;SDS_P1;SDS_P2;PMS_P1;PMS_P2;Temp;Humidity;BMP_temperature;BMP_pressure;BME280_temperature;BME280_humidity;BME280_pressure;Samples;Min_cycle;Max_cycle;Signal;HPM_P1;HPM_P2
2023/07/21 00:01:46;;;;;;;2.67;1.80;;;14.10;99.90;;;;;;5035922;28;20225;-88
2023/07/21 00:04:13;;;;;;;2.63;2.00;;;14.70;99.90;;;;;;5033781;28;20474;-87
2023/07/21 00:06:43;;;;;;;4.55;2.13;;;14.00;99.90;;;;;;5027693;28;20668;-86
2023/07/21 00:09:10;;;;;;;4.55;2.30;;;14.10;99.90;;;;;;5042648;28;20730;-88
2023/07/21 00:11:38;;;;;;;2.55;2.17;;;14.00;99.90;;;;;;5049510;28;20200;-88
2023/07/21 00:14:05;;;;;;;10.27;1.92;;;13.90;99.90;;;;;;5042884;28;20267;-88
2023/07/21 00:16:33;;;;;;;10.32;2.85;;;13.90;99.90;;;;;;5040831;28;20201;-87
2023/07/21 00:19:01;;;;;;;2.25;2.05;;;14.00;99.90;;;;;;5043241;28;20225;-86
2023/07/21 00:21:29;;;;;;;1.67;1.58;;;14.00;99.90;;;;;;5026466;28;20231;-90
2023/07/21 00:23:56;;;;;;;1.50;1.40;;;15.30;99.90;;;;;;5046807;28;20228;-87
2023/07/21 00:26:24;;;;;;;2.38;1.48;;;13.80;99.90;;;;;;5045044;28;20246;-89
2023/07/21 00:28:51;;;;;;;3.15;1.88;;;13.70;99.90;;;;;;5036287;28;20206;-87
2023/07/21 00:31:18;;;;;;;1.55;1.45;;;13.80;99.90;;;;;;5049907;28;20208;-89
2023/07/21 00:33:44;;;;;;;2.40;1.70;;;13.80;99.90;;;;;;5032889;28;20319;-87
2023/07/21 00:36:13;;;;;;;3.38;1.80;;;13.80;99.90;;;;;;5036157;28;20208;-86
2023/07/21 00:38:40;;;;;;;2.72;1.33;;;13.70;99.90;;;;;;5024780;28;20209;-89
2023/07/21 00:41:08;;;;;;;0.98;0.90;;;;;;;;;;5048795;28;20204;-89
2023/07/21 00:43:35;;;;;;;0.70;0.70;;;13.80;99.90;;;;;;5041562;28;20221;-87
2023/07/21 00:46:01;;;;;;;0.88;0.88;;;13.70;99.90;;;;;;5043510;28;20600;-86
2023/07/21 00:48:28;;;;;;;0.77;0.77;;;13.60;99.90;;;;;;5025356;28;21362;-89
2023/07/21 00:50:55;;;;;;;0.65;0.60;;;13.50;99.90;;;;;;5035444;28;20209;-90
2023/07/21 00:53:25;;;;;;;1.00;0.70;;;13.40;99.90;;;;;;5026495;28;20577;-87
2023/07/21 00:55:52;;;;;;;1.50;0.70;;;13.50;99.90;;;;;;5032873;28;20209;-89
2023/07/21 00:58:19;;;;;;;0.73;0.60;;;13.50;99.90;;;;;;5048500;28;20203;-87
2023/07/21 01:00:47;;;;;;;0.70;0.63;;;13.50;99.90;;;;;;5039856;28;20458;-86
2023/07/21 01:03:17;;;;;;;0.93;0.90;;;13.40;99.90;;;;;;5035575;28;20222;-88
2023/07/21 01:05:48;;;;;;;3.63;0.80;;;13.40;99.90;;;;;;5035733;28;20205;-89
2023/07/21 01:08:16;;;;;;;3.13;1.00;;;13.30;99.90;;;;;;5027133;28;20748;-87
2023/07/21 01:10:45;;;;;;;0.88;0.88;;;13.30;99.90;;;;;;5037234;28;20196;-89
2023/07/21 01:13:13;;;;;;;1.73;1.17;;;13.30;99.90;;;;;;5049205;28;20195;-89
2023/07/21 01:15:46;;;;;;;1.20;1.00;;;13.30;99.90;;;;;;5045188;28;20322;-87
2023/07/21 01:18:16;;;;;;;1.35;1.10;;;13.80;99.90;;;;;;5037760;28;20210;-87
2023/07/21 01:20:44;;;;;;;3.83;1.38;;;13.30;99.90;;;;;;5033922;28;20218;-87
2023/07/21 01:23:22;;;;;;;1.20;1.10;;;13.40;99.90;;;;;;5017790;28;20708;-87
2023/07/21 01:25:52;;;;;;;3.00;1.13;;;13.30;99.90;;;;;;5040675;28;20212;-89
2023/07/21 01:28:20;;;;;;;5.55;1.17;;;13.20;99.90;;;;;;5045730;28;20380;-88
2023/07/21 01:30:49;;;;;;;4.45;1.52;;;13.20;99.90;;;;;;5045025;28;20205;-88
2023/07/21 01:33:18;;;;;;;9.48;1.38;;;13.20;99.90;;;;;;5035218;28;20485;-88
2023/07/21 01:35:48;;;;;;;2.90;1.05;;;13.20;99.90;;;;;;5044741;28;21044;-87
2023/07/21 01:38:16;;;;;;;2.63;1.33;;;13.20;99.90;;;;;;5019558;28;20912;-89
2023/07/21 01:40:44;;;;;;;5.95;1.05;;;13.30;99.90;;;;;;5043035;28;20216;-86
2023/07/21 01:43:14;;;;;;;4.70;1.10;;;13.20;99.90;;;;;;5051191;28;20247;-86
2023/07/21 01:45:41;;;;;;;9.52;1.60;;;13.20;99.90;;;;;;5049562;28;20208;-86
2023/07/21 01:48:09;;;;;;;5.75;1.10;;;13.20;99.90;;;;;;5035393;28;20241;-88
2023/07/21 01:50:39;;;;;;;5.97;1.52;;;13.20;99.90;;;;;;5050016;28;20239;-87
2023/07/21 01:53:09;;;;;;;4.28;1.48;;;13.30;99.90;;;;;;5022753;28;20204;-86
2023/07/21 01:55:43;;;;;;;13.68;2.10;;;13.20;99.90;;;;;;5038851;28;20203;-85
2023/07/21 01:58:12;;;;;;;8.50;1.50;;;13.20;99.90;;;;;;5033158;28;20208;-89
2023/07/21 02:00:43;;;;;;;8.68;1.45;;;13.20;99.90;;;;;;5048548;28;20200;-89
2023/07/21 02:03:11;;;;;;;2.78;1.33;;;13.20;99.90;;;;;;5036532;28;20243;-87
2023/07/21 02:05:38;;;;;;;10.32;1.90;;;13.20;99.90;;;;;;5051573;28;20212;-86
2023/07/21 02:08:05;;;;;;;8.88;1.60;;;13.20;99.90;;;;;;5034999;28;20245;-85
2023/07/21 02:10:32;;;;;;;5.72;1.77;;;13.20;99.90;;;;;;5027485;28;20219;-86
2023/07/21 02:12:58;;;;;;;5.90;1.70;;;13.20;99.90;;;;;;5040980;28;20212;-87
2023/07/21 02:15:27;;;;;;;10.52;1.77;;;13.20;99.90;;;;;;5048086;28;20517;-88
2023/07/21 02:17:54;;;;;;;12.10;2.13;;;13.20;99.90;;;;;;5043031;28;20206;-89
2023/07/21 02:20:21;;;;;;;5.90;1.38;;;13.20;99.90;;;;;;5032173;28;20526;-87
2023/07/21 02:22:48;;;;;;;11.38;2.08;;;13.20;99.90;;;;;;5042442;28;20721;-88
2023/07/21 02:25:15;;;;;;;6.00;1.90;;;13.20;99.90;;;;;;5016959;28;20743;-87
2023/07/21 02:27:44;;;;;;;6.85;2.40;;;13.20;99.90;;;;;;5037444;28;20813;-86
2023/07/21 02:30:11;;;;;;;6.57;2.33;;;13.20;99.90;;;;;;5039867;28;20282;-87
2023/07/21 02:32:39;;;;;;;9.07;2.33;;;13.20;99.90;;;;;;5036874;28;20216;-87
2023/07/21 02:35:08;;;;;;;6.50;2.50;;;13.30;99.90;;;;;;5032990;28;20236;-86
2023/07/21 02:37:36;;;;;;;3.90;2.22;;;13.40;99.90;;;;;;5033330;28;20330;-88
2023/07/21 02:40:04;;;;;;;8.55;2.65;;;13.40;99.90;;;;;;5030109;28;20212;-87
2023/07/21 02:42:31;;;;;;;4.70;2.75;;;13.40;99.90;;;;;;5010104;28;20234;-88
2023/07/21 02:44:58;;;;;;;8.25;2.75;;;13.50;99.90;;;;;;5041267;28;20596;-86
2023/07/21 02:47:26;;;;;;;3.65;2.67;;;13.50;99.90;;;;;;5040750;28;20208;-88
2023/07/21 02:49:54;;;;;;;9.23;2.70;;;13.50;99.90;;;;;;5029798;28;20491;-87
2023/07/21 02:52:21;;;;;;;3.63;2.60;;;13.40;99.90;;;;;;5043969;28;20197;-87
2023/07/21 02:54:48;;;;;;;13.63;2.83;;;13.30;99.90;;;;;;5029864;28;20606;-87
2023/07/21 02:57:15;;;;;;;7.43;2.67;;;13.30;99.90;;;;;;5015533;28;20596;-86
2023/07/21 02:59:42;;;;;;;3.05;2.75;;;13.20;99.90;;;;;;5039236;28;20314;-87
2023/07/21 03:02:09;;;;;;;5.85;2.80;;;13.30;99.90;;;;;;5044849;28;20854;-86
2023/07/21 03:04:37;;;;;;;6.43;2.60;;;13.20;99.90;;;;;;5027384;28;20224;-84
2023/07/21 03:07:06;;;;;;;6.32;2.45;;;13.20;99.90;;;;;;5045255;28;20208;-87
2023/07/21 03:09:33;;;;;;;5.93;2.78;;;13.20;99.90;;;;;;5039466;28;20564;-86
2023/07/21 03:11:59;;;;;;;4.65;2.53;;;13.20;99.90;;;;;;5026553;28;20216;-90
2023/07/21 03:14:26;;;;;;;4.03;2.90;;;13.30;99.90;;;;;;5038921;28;20557;-86
2023/07/21 03:16:53;;;;;;;4.30;3.03;;;13.30;99.90;;;;;;5040614;28;20201;-86
2023/07/21 03:19:20;;;;;;;4.53;2.60;;;13.20;99.90;;;;;;5033244;28;20229;-85
2023/07/21 03:21:49;;;;;;;2.72;2.50;;;13.30;99.90;;;;;;5038004;28;20212;-86
2023/07/21 03:24:17;;;;;;;2.55;2.35;;;13.20;99.90;;;;;;5034355;28;20226;-89
2023/07/21 03:26:44;;;;;;;2.72;2.40;;;13.10;99.90;;;;;;5023173;28;20223;-89
2023/07/21 03:29:11;;;;;;;7.00;2.50;;;13.10;99.90;;;;;;5027120;28;20771;-86
2023/07/21 03:31:37;;;;;;;2.47;2.20;;;13.10;99.90;;;;;;5041620;28;20203;-88
2023/07/21 03:34:04;;;;;;;2.10;1.90;;;13.00;99.90;;;;;;5046409;28;20196;-88
2023/07/21 03:36:31;;;;;;;2.28;2.00;;;13.00;99.90;;;;;;5038598;28;20209;-86
2023/07/21 03:38:58;;;;;;;6.05;2.40;;;13.00;99.90;;;;;;5046967;28;20378;-89
2023/07/21 03:41:26;;;;;;;4.07;2.15;;;12.90;99.90;;;;;;5032648;28;20573;-86
2023/07/21 03:43:53;;;;;;;3.45;2.28;;;12.90;99.90;;;;;;5036070;28;20228;-86
2023/07/21 03:46:20;;;;;;;2.97;1.85;;;12.90;99.90;;;;;;5030173;28;20201;-89
2023/07/21 03:48:47;;;;;;;2.00;1.80;;;12.90;99.90;;;;;;5046782;28;20239;-86
2023/07/21 03:51:14;;;;;;;3.70;1.67;;;12.80;99.90;;;;;;5037492;28;20201;-87
2023/07/21 03:53:41;;;;;;;1.80;1.70;;;12.80;99.90;;;;;;5044738;28;20200;-87
2023/07/21 03:56:08;;;;;;;2.28;1.80;;;12.80;99.90;;;;;;5024024;28;20652;-87
2023/07/21 03:58:36;;;;;;;2.45;2.10;;;12.70;99.90;;;;;;5048297;28;20790;-88
2023/07/21 04:01:03;;;;;;;2.63;1.90;;;12.80;99.90;;;;;;5027788;28;20216;-89
2023/07/21 04:03:30;;;;;;;2.30;2.10;;;;;;;;;;5041143;28;20209;-88
2023/07/21 04:05:57;;;;;;;2.58;2.17;;;12.80;99.90;;;;;;5037915;28;20198;-90
2023/07/21 04:08:23;;;;;;;3.15;2.50;;;12.80;99.90;;;;;;5049192;28;20252;-87
2023/07/21 04:10:50;;;;;;;3.95;2.75;;;12.90;99.90;;;;;;5026933;28;20702;-86
2023/07/21 04:13:17;;;;;;;4.05;2.95;;;12.90;99.90;;;;;;5043954;28;20201;-87
2023/07/21 04:15:51;;;;;;;4.47;3.10;;;13.00;99.90;;;;;;5034777;28;20200;-88
2023/07/21 04:18:18;;;;;;;5.32;2.85;;;13.10;99.90;;;;;;5030815;28;20263;-86
2023/07/21 04:20:45;;;;;;;4.88;3.28;;;13.10;99.90;;;;;;5040999;28;20596;-84
2023/07/21 04:23:12;;;;;;;12.20;3.05;;;13.10;99.90;;;;;;5032826;28;20209;-87
2023/07/21 04:25:38;;;;;;;10.90;3.63;;;13.00;99.90;;;;;;5040643;28;20224;-87
2023/07/21 04:28:06;;;;;;;6.53;2.90;;;13.20;99.90;;;;;;5024702;28;20213;-88
2023/07/21 04:30:33;;;;;;;9.82;3.58;;;13.00;99.90;;;;;;5039418;28;20681;-87
2023/07/21 04:33:01;;;;;;;8.70;3.75;;;13.10;99.90;;;;;;5034967;28;20480;-88
2023/07/21 04:35:28;;;;;;;8.55;2.78;;;13.10;99.90;;;;;;5043265;28;20193;-88
2023/07/21 04:37:54;;;;;;;12.63;4.95;;;13.20;99.90;;;;;;5031867;28;20700;-86
2023/07/21 04:40:21;;;;;;;7.22;4.72;;;13.20;99.90;;;;;;5053808;28;20205;-83
2023/07/21 04:42:48;;;;;;;8.13;3.38;;;13.10;99.90;;;;;;5013235;28;20209;-86
2023/07/21 04:45:15;;;;;;;9.23;6.53;;;13.30;99.90;;;;;;5046527;28;20224;-87
2023/07/21 04:47:42;;;;;;;8.18;7.32;;;12.90;99.90;;;;;;5023637;28;20200;-86
2023/07/21 04:50:11;;;;;;;6.32;5.30;;;13.20;99.90;;;;;;5037450;28;20212;-87
2023/07/21 04:52:38;;;;;;;4.25;3.20;;;13.20;99.90;;;;;;5045640;28;20280;-85
2023/07/21 04:55:06;;;;;;;4.97;2.40;;;13.30;99.90;;;;;;5034998;28;20258;-88
2023/07/21 04:57:34;;;;;;;6.38;2.65;;;13.30;99.90;;;;;;5046072;28;20197;-89
2023/07/21 05:00:01;;;;;;;8.70;2.22;;;15.40;99.90;;;;;;5023849;28;20209;-87
2023/07/21 05:02:28;;;;;;;3.55;2.80;;;13.50;99.90;;;;;;5029751;28;20213;-86
2023/07/21 05:04:58;;;;;;;3.47;2.72;;;13.60;99.90;;;;;;5019979;28;20425;-89
2023/07/21 05:07:27;;;;;;;4.97;3.40;;;;;;;;;;5039952;28;20411;-86
2023/07/21 05:09:55;;;;;;;3.60;3.30;;;13.70;99.90;;;;;;5022618;28;20426;-86
2023/07/21 05:12:25;;;;;;;3.55;3.10;;;13.70;99.90;;;;;;5038678;28;20212;-88
2023/07/21 05:14:52;;;;;;;5.75;3.38;;;13.80;99.90;;;;;;5013892;28;20215;-89
2023/07/21 05:17:19;;;;;;;6.40;3.10;;;13.90;99.90;;;;;;5034439;28;20212;-86
2023/07/21 05:19:46;;;;;;;6.45;3.35;;;13.90;99.90;;;;;;5021280;28;20759;-87
2023/07/21 05:22:13;;;;;;;4.38;3.58;;;14.00;99.90;;;;;;5022275;28;20215;-87
2023/07/21 05:24:41;;;;;;;10.77;3.95;;;14.00;99.90;;;;;;5035267;28;20223;-85
2023/07/21 05:27:08;;;;;;;7.40;5.40;;;14.10;99.90;;;;;;5046967;28;20310;-86
2023/07/21 05:29:35;;;;;;;6.82;5.10;;;14.10;99.90;;;;;;5035356;28;20197;-86
2023/07/21 05:32:03;;;;;;;7.05;5.22;;;14.20;99.90;;;;;;5027459;28;20201;-86
2023/07/21 05:34:32;;;;;;;8.63;5.55;;;14.30;99.90;;;;;;5022987;28;20198;-88
2023/07/21 05:36:59;;;;;;;7.68;5.05;;;14.30;99.90;;;;;;5027442;28;20292;-91
2023/07/21 05:39:28;;;;;;;7.10;4.80;;;14.40;99.90;;;;;;5033527;28;20639;-86
2023/07/21 05:41:57;;;;;;;18.75;5.63;;;14.30;99.90;;;;;;5035598;28;20209;-88
2023/07/21 05:44:24;;;;;;;5.95;5.00;;;14.40;99.90;;;;;;5026680;28;20671;-86
2023/07/21 05:46:51;;;;;;;8.85;5.10;;;14.50;99.90;;;;;;5004974;28;20496;-86
2023/07/21 05:49:18;;;;;;;6.45;4.70;;;14.50;99.90;;;;;;5019772;28;20240;-86
2023/07/21 05:51:45;;;;;;;5.43;4.50;;;14.60;99.90;;;;;;5038366;28;20209;-89
2023/07/21 05:54:12;;;;;;;9.77;4.75;;;14.70;99.90;;;;;;5036287;28;20675;-86
2023/07/21 05:56:39;;;;;;;9.73;4.75;;;14.90;99.90;;;;;;5022788;28;20251;-88
2023/07/21 05:59:07;;;;;;;7.05;4.60;;;14.80;99.90;;;;;;5040421;28;20617;-86
2023/07/21 06:01:36;;;;;;;5.53;4.72;;;14.90;99.90;;;;;;5015411;28;20394;-89
2023/07/21 06:04:03;;;;;;;11.02;5.45;;;14.90;99.90;;;;;;5047432;28;20216;-86
2023/07/21 06:06:31;;;;;;;8.32;5.18;;;14.90;99.90;;;;;;5029998;28;20473;-86
2023/07/21 06:08:57;;;;;;;9.15;5.15;;;14.90;99.90;;;;;;5022268;28;20200;-88
2023/07/21 06:11:26;;;;;;;6.55;5.20;;;15.00;99.90;;;;;;5028460;28;20353;-87
2023/07/21 06:13:53;;;;;;;6.57;5.13;;;14.90;99.90;;;;;;5045570;28;20205;-90
2023/07/21 06:16:23;;;;;;;7.78;4.78;;;15.00;99.90;;;;;;5026945;28;20201;-87
2023/07/21 06:18:51;;;;;;;7.97;5.10;;;15.00;99.90;;;;;;5027277;28;20612;-89
2023/07/21 06:21:19;;;;;;;6.75;5.03;;;15.10;99.90;;;;;;5029232;28;20695;-85
2023/07/21 06:23:46;;;;;;;6.53;4.68;;;15.20;99.90;;;;;;5020870;28;20219;-87
2023/07/21 06:26:13;;;;;;;6.97;4.40;;;15.20;99.90;;;;;;5024351;28;20222;-85
2023/07/21 06:28:41;;;;;;;5.00;4.30;;;15.20;99.90;;;;;;5041511;28;20231;-89
2023/07/21 06:31:09;;;;;;;8.68;4.40;;;15.20;99.90;;;;;;5049758;28;20741;-87
2023/07/21 06:33:38;;;;;;;6.95;4.75;;;15.20;99.90;;;;;;5019205;28;20212;-88
2023/07/21 06:36:05;;;;;;;4.95;4.43;;;15.20;99.90;;;;;;5045019;28;20321;-87
2023/07/21 06:38:32;;;;;;;6.03;4.50;;;15.20;99.90;;;;;;5040198;28;20813;-88
2023/07/21 06:40:59;;;;;;;5.20;4.22;;;15.20;99.90;;;;;;5017966;28;20213;-89
2023/07/21 06:43:26;;;;;;;6.35;5.75;;;15.30;99.90;;;;;;5036398;28;20662;-85
2023/07/21 06:45:53;;;;;;;4.60;4.15;;;15.20;99.90;;;;;;5031623;28;20878;-88
2023/07/21 06:48:20;;;;;;;5.93;3.90;;;15.30;99.90;;;;;;5020901;28;20239;-86
2023/07/21 06:50:49;;;;;;;5.65;3.47;;;15.30;99.90;;;;;;5038178;28;20204;-87
2023/07/21 06:53:17;;;;;;;8.15;3.92;;;15.20;99.90;;;;;;5046789;28;20224;-88
2023/07/21 06:55:45;;;;;;;7.00;3.72;;;15.40;99.90;;;;;;5024677;28;20236;-88
2023/07/21 06:58:12;;;;;;;5.78;3.85;;;15.40;99.90;;;;;;5036805;28;20211;-87
2023/07/21 07:00:39;;;;;;;7.07;3.67;;;15.40;99.90;;;;;;5053885;28;20224;-89
2023/07/21 07:03:05;;;;;;;7.95;3.50;;;15.50;99.90;;;;;;5032706;28;20222;-84
2023/07/21 07:05:32;;;;;;;3.63;3.17;;;15.50;99.90;;;;;;5046886;28;20576;-87
2023/07/21 07:08:00;;;;;;;5.53;3.30;;;15.60;99.90;;;;;;5047544;28;20201;-86
2023/07/21 07:10:27;;;;;;;4.32;3.35;;;15.60;99.90;;;;;;5038481;28;20200;-88
2023/07/21 07:12:55;;;;;;;8.20;3.50;;;;;;;;;;5031735;28;20209;-86
2023/07/21 07:15:22;;;;;;;8.55;3.55;;;15.60;99.90;;;;;;5045739;28;20259;-86
2023/07/21 07:17:49;;;;;;;4.10;3.17;;;15.80;99.90;;;;;;5030882;28;20244;-86
2023/07/21 07:20:16;;;;;;;5.93;2.90;;;15.80;99.90;;;;;;5016838;28;24175;-87
2023/07/21 07:22:43;;;;;;;8.00;3.05;;;15.90;99.90;;;;;;5036118;28;20381;-85
2023/07/21 07:25:11;;;;;;;4.20;3.10;;;15.90;99.90;;;;;;5033198;28;20312;-83
2023/07/21 07:27:38;;;;;;;6.07;3.30;;;15.90;99.90;;;;;;5023091;28;20213;-87
2023/07/21 07:30:06;;;;;;;5.00;2.88;;;16.10;99.90;;;;;;5032309;28;20239;-87
2023/07/21 07:32:34;;;;;;;3.00;2.60;;;;;;;;;;5037024;28;20198;-86
2023/07/21 07:35:00;;;;;;;3.15;2.85;;;16.10;99.90;;;;;;5028110;28;20205;-87
2023/07/21 07:37:28;;;;;;;6.38;2.85;;;16.20;99.90;;;;;;5043332;28;20228;-89
2023/07/21 07:39:55;;;;;;;5.38;3.30;;;16.50;99.90;;;;;;5044411;28;20192;-87
2023/07/21 07:42:24;;;;;;;6.72;3.40;;;16.20;99.90;;;;;;5032492;28;20200;-85
2023/07/21 07:44:55;;;;;;;4.57;3.05;;;16.20;99.90;;;;;;5042258;28;20212;-87
2023/07/21 07:47:22;;;;;;;3.85;3.03;;;16.30;99.90;;;;;;5047368;28;20226;-86
2023/07/21 07:49:49;;;;;;;4.70;3.17;;;16.20;99.90;;;;;;5015903;28;20549;-86
2023/07/21 07:52:16;;;;;;;7.30;2.65;;;16.30;99.90;;;;;;5029446;28;20201;-86
2023/07/21 07:54:43;;;;;;;2.70;2.40;;;16.40;99.90;;;;;;5026596;28;20224;-87
2023/07/21 07:57:10;;;;;;;6.90;2.70;;;16.40;99.90;;;;;;5035854;28;20215;-87
2023/07/21 07:59:38;;;;;;;5.43;2.30;;;16.40;99.90;;;;;;5026397;28;20276;-87
2023/07/21 08:02:06;;;;;;;5.82;2.70;;;16.40;99.90;;;;;;5051707;28;20201;-87
2023/07/21 08:04:33;;;;;;;2.72;2.33;;;16.50;99.90;;;;;;5028152;28;20208;-87
2023/07/21 08:07:00;;;;;;;2.67;2.13;;;16.50;99.90;;;;;;5047057;28;20227;-87
2023/07/21 08:09:27;;;;;;;2.40;2.13;;;16.50;99.90;;;;;;5048271;28;20241;-87
2023/07/21 08:11:54;;;;;;;5.10;3.20;;;16.70;99.90;;;;;;5044168;28;20515;-88
2023/07/21 08:14:21;;;;;;;8.10;3.38;;;16.70;99.90;;;;;;5037974;28;20504;-88
2023/07/21 08:16:49;;;;;;;4.63;2.15;;;;;;;;;;5029254;28;20447;-89
2023/07/21 08:19:18;;;;;;;4.38;1.88;;;16.60;99.90;;;;;;5049712;28;20209;-86
2023/07/21 08:21:47;;;;;;;3.75;2.45;;;16.70;99.90;;;;;;5026401;28;20485;-88
2023/07/21 08:24:15;;;;;;;4.40;2.33;;;16.70;99.90;;;;;;5044552;28;20206;-86
2023/07/21 08:26:42;;;;;;;3.28;2.42;;;16.70;99.90;;;;;;5044578;28;20310;-88
2023/07/21 08:29:09;;;;;;;2.97;2.35;;;16.70;99.90;;;;;;5030779;28;20212;-87
2023/07/21 08:31:36;;;;;;;2.33;2.03;;;16.80;99.90;;;;;;5018113;28;20208;-87
2023/07/21 08:34:04;;;;;;;4.05;2.45;;;16.80;99.90;;;;;;5043786;28;20212;-88
2023/07/21 08:36:31;;;;;;;4.05;1.70;;;17.30;99.90;;;;;;5022651;28;20220;-86
2023/07/21 08:38:58;;;;;;;2.75;1.65;;;17.00;99.90;;;;;;5034582;28;20690;-86
2023/07/21 08:41:26;;;;;;;2.00;1.45;;;17.00;99.90;;;;;;5045868;28;20704;-90
2023/07/21 08:43:56;;;;;;;4.72;1.70;;;16.90;99.90;;;;;;5024428;28;20223;-89
2023/07/21 08:46:24;;;;;;;2.72;1.77;;;17.00;99.90;;;;;;5038559;28;20722;-88
2023/07/21 08:48:52;;;;;;;2.60;1.70;;;17.00;99.90;;;;;;5032874;28;20243;-89
2023/07/21 08:51:21;;;;;;;2.45;1.67;;;;;;;;;;5047124;28;20205;-86
2023/07/21 08:53:48;;;;;;;2.90;1.75;;;17.10;99.90;;;;;;5027556;28;20441;-86
2023/07/21 08:56:14;;;;;;;8.10;2.17;;;17.10;99.90;;;;;;5053303;28;20213;-88
2023/07/21 08:58:41;;;;;;;5.00;1.73;;;17.10;99.90;;;;;;5032749;28;20517;-87
2023/07/21 09:01:09;;;;;;;2.00;1.50;;;17.00;99.90;;;;;;5039184;28;20210;-89
2023/07/21 09:03:35;;;;;;;1.88;1.67;;;17.10;99.90;;;;;;5037913;28;20325;-86
2023/07/21 09:06:02;;;;;;;1.90;1.60;;;17.20;99.90;;;;;;5034067;28;20222;-85
2023/07/21 09:08:34;;;;;;;4.03;1.92;;;17.20;99.90;;;;;;5029271;28;20221;-88
2023/07/21 09:11:01;;;;;;;2.03;1.88;;;17.40;99.90;;;;;;5046209;28;20201;-87
2023/07/21 09:13:29;;;;;;;3.33;1.70;;;17.20;99.90;;;;;;5047987;28;20569;-86
2023/07/21 09:15:59;;;;;;;4.13;1.80;;;17.10;99.90;;;;;;5045087;28;20285;-87
2023/07/21 09:18:28;;;;;;;3.78;1.88;;;17.20;99.90;;;;;;5031012;28;20210;-87
2023/07/21 09:20:55;;;;;;;4.13;2.05;;;17.20;99.90;;;;;;5036248;28;20205;-86
2023/07/21 09:23:23;;;;;;;3.83;1.80;;;17.30;99.90;;;;;;5032777;28;20676;-86
2023/07/21 09:25:53;;;;;;;3.20;1.98;;;17.30;99.90;;;;;;5014766;28;20220;-88
2023/07/21 09:28:20;;;;;;;4.63;1.80;;;17.50;99.90;;;;;;5034895;28;20662;-88
2023/07/21 09:30:51;;;;;;;4.25;1.73;;;18.00;99.90;;;;;;5043442;28;20466;-86
2023/07/21 09:33:25;;;;;;;2.13;1.50;;;17.50;99.90;;;;;;5040338;28;20732;-86
2023/07/21 09:36:03;;;;;;;3.05;1.50;;;17.70;99.90;;;;;;5045026;28;20275;-87
2023/07/21 09:38:30;;;;;;;3.13;1.55;;;17.70;99.90;;;;;;5042692;28;20200;-86
2023/07/21 09:41:03;;;;;;;1.83;1.45;;;17.70;99.90;;;;;;5018541;28;20212;-86
2023/07/21 09:43:30;;;;;;;1.50;1.38;;;17.70;99.90;;;;;;5032975;28;20208;-88
2023/07/21 09:46:00;;;;;;;2.85;1.58;;;17.60;99.90;;;;;;5034439;28;20225;-86
2023/07/21 09:48:28;;;;;;;4.03;1.70;;;17.60;99.90;;;;;;5040940;28;20236;-88
2023/07/21 09:50:59;;;;;;;2.00;1.75;;;17.50;99.90;;;;;;5035931;28;20196;-87
2023/07/21 09:53:31;;;;;;;2.10;1.73;;;17.50;99.90;;;;;;5046083;28;20227;-87
2023/07/21 09:56:02;;;;;;;3.00;1.13;;;17.50;99.90;;;;;;5026964;28;20212;-86
2023/07/21 09:58:30;;;;;;;1.70;1.20;;;17.60;99.90;;;;;;5037665;28;20677;-90
2023/07/21 10:01:02;;;;;;;1.30;1.10;;;17.80;99.90;;;;;;5036612;28;20227;-89
2023/07/21 10:03:30;;;;;;;3.33;1.35;;;18.00;99.90;;;;;;5039878;28;20584;-87
2023/07/21 10:05:58;;;;;;;2.95;1.30;;;17.90;99.90;;;;;;4991718;28;20339;-86
2023/07/21 10:08:27;;;;;;;2.13;1.27;;;18.10;99.90;;;;;;5018864;28;20209;-88
2023/07/21 10:10:56;;;;;;;1.38;1.20;;;18.30;99.90;;;;;;4993830;28;20597;-87
2023/07/21 10:13:25;;;;;;;2.25;1.65;;;18.40;99.90;;;;;;5023080;28;20216;-90
2023/07/21 10:15:52;;;;;;;1.77;1.20;;;18.40;99.90;;;;;;5030953;28;20201;-90
2023/07/21 10:18:20;;;;;;;1.30;1.20;;;18.50;99.90;;;;;;5036892;28;20200;-87
2023/07/21 10:20:49;;;;;;;2.35;1.30;;;18.60;99.90;;;;;;5027670;28;20301;-87
2023/07/21 10:23:18;;;;;;;1.10;1.00;;;18.70;99.90;;;;;;5040384;28;20204;-88
2023/07/21 10:26:01;;;;;;;1.05;1.00;;;18.70;99.90;;;;;;5010577;28;20315;-87
2023/07/21 10:28:38;;;;;;;2.63;1.10;;;18.80;99.90;;;;;;5023124;28;20212;-86
2023/07/21 10:31:36;;;;;;;1.58;1.10;;;18.70;99.90;;;;;;5022156;28;20209;-86
2023/07/21 10:34:10;;;;;;;0.85;0.75;;;18.70;99.90;;;;;;5043480;28;20201;-89
2023/07/21 10:36:45;;;;;;;4.60;1.23;;;18.90;99.90;;;;;;5024931;28;20206;-87
2023/07/21 10:39:16;;;;;;;2.35;1.17;;;19.10;99.90;;;;;;5035154;28;20203;-88
2023/07/21 10:41:43;;;;;;;3.58;1.50;;;19.20;99.90;;;;;;5003863;28;20372;-87
2023/07/21 10:44:13;;;;;;;1.27;1.17;;;19.20;99.90;;;;;;5026320;28;20211;-87
2023/07/21 10:46:40;;;;;;;1.20;1.10;;;19.30;99.90;;;;;;5027036;28;20228;-88
2023/07/21 10:49:09;;;;;;;2.30;1.50;;;19.20;99.90;;;;;;5025417;28;20232;-88
2023/07/21 10:51:37;;;;;;;3.50;1.30;;;19.10;99.90;;;;;;5012535;28;20629;-88
2023/07/21 10:54:04;;;;;;;2.65;1.42;;;19.10;99.90;;;;;;5040548;28;20680;-86
2023/07/21 10:56:34;;;;;;;1.45;1.10;;;19.20;99.90;;;;;;5003301;28;20500;-86
2023/07/21 10:59:01;;;;;;;1.30;1.20;;;19.40;99.90;;;;;;5028302;28;20671;-86
2023/07/21 11:01:29;;;;;;;3.67;1.10;;;19.40;99.90;;;;;;5026868;28;20481;-87
2023/07/21 11:03:57;;;;;;;2.00;1.20;;;19.40;99.90;;;;;;5049611;28;20211;-85
2023/07/21 11:06:24;;;;;;;2.08;1.10;;;19.50;99.90;;;;;;5039351;22;20243;-65
2023/07/21 11:08:51;;;;;;;1.00;1.00;;;19.50;99.90;;;;;;5037914;28;20198;-64
2023/07/21 11:11:18;;;;;;;1.95;1.05;;;19.40;99.90;;;;;;5025685;28;20286;-66
2023/07/21 11:13:44;;;;;;;2.22;1.20;;;19.40;99.90;;;;;;5002713;28;20208;-65
2023/07/21 11:16:11;;;;;;;1.42;1.20;;;19.50;99.90;;;;;;5038538;28;20228;-65
2023/07/21 11:18:42;;;;;;;3.72;1.27;;;19.60;99.90;;;;;;5023649;28;20423;-65
2023/07/21 11:21:10;;;;;;;6.13;1.27;;;19.60;99.90;;;;;;5038053;28;20227;-65
2023/07/21 11:23:37;;;;;;;2.47;1.25;;;19.70;99.90;;;;;;5026538;28;20221;-65
2023/07/21 11:26:06;;;;;;;1.27;1.10;;;19.70;99.90;;;;;;5038334;28;20223;-65
2023/07/21 11:28:34;;;;;;;1.73;1.23;;;19.70;99.90;;;;;;4989378;28;20866;-65
2023/07/21 11:31:01;;;;;;;1.95;1.27;;;19.90;99.90;;;;;;5040269;28;20736;-65
2023/07/21 11:33:43;;;;;;;1.42;1.33;;;19.70;99.90;;;;;;5012031;28;21398;-64
2023/07/21 11:36:17;;;;;;;1.30;1.05;;;19.70;99.90;;;;;;5013286;28;20228;-65
2023/07/21 11:38:58;;;;;;;4.20;1.38;;;19.70;99.90;;;;;;5016698;28;20205;-65
2023/07/21 11:41:45;;;;;;;1.30;1.10;;;19.70;99.90;;;;;;5027560;28;20216;-64
2023/07/21 11:44:17;;;;;;;3.13;1.30;;;20.10;99.90;;;;;;5009097;28;20308;-65
2023/07/21 11:46:59;;;;;;;2.70;1.30;;;19.80;99.90;;;;;;5029640;28;20229;-64
2023/07/21 11:49:29;;;;;;;1.30;1.20;;;19.90;99.90;;;;;;5021370;28;20227;-64
2023/07/21 11:51:58;;;;;;;1.52;1.23;;;19.90;99.90;;;;;;5026436;28;20859;-65
2023/07/21 11:54:27;;;;;;;4.28;1.60;;;;;;;;;;5015239;28;20220;-64
2023/07/21 11:56:55;;;;;;;1.48;1.15;;;19.90;99.90;;;;;;5028668;28;20216;-65
2023/07/21 11:59:23;;;;;;;4.63;1.30;;;19.90;99.90;;;;;;5003633;28;20209;-65
2023/07/21 12:01:50;;;;;;;1.67;0.98;;;19.90;99.90;;;;;;5029436;28;20236;-65
2023/07/21 12:04:18;;;;;;;2.50;1.55;;;20.00;99.90;;;;;;5037140;28;20221;-65
2023/07/21 12:06:46;;;;;;;4.18;1.48;;;20.20;99.90;;;;;;5023329;28;20240;-65
2023/07/21 12:09:13;;;;;;;1.35;1.20;;;20.20;99.90;;;;;;5020869;28;20720;-65
2023/07/21 12:11:40;;;;;;;2.05;1.30;;;20.20;99.90;;;;;;5021608;28;20229;-65
2023/07/21 12:14:07;;;;;;;2.85;1.33;;;20.20;99.90;;;;;;5007892;28;20233;-65
2023/07/21 12:16:34;;;;;;;2.08;1.02;;;20.30;99.90;;;;;;5023341;28;20224;-65
2023/07/21 12:19:03;;;;;;;1.55;1.23;;;20.30;99.90;;;;;;5033931;28;20196;-65
2023/07/21 12:21:30;;;;;;;1.20;1.10;;;20.20;99.90;;;;;;5027545;28;20335;-65
2023/07/21 12:23:59;;;;;;;4.80;1.13;;;20.20;99.90;;;;;;5037548;28;20277;-65
2023/07/21 12:26:26;;;;;;;1.17;1.08;;;20.30;99.90;;;;;;5016334;28;20224;-64
2023/07/21 12:28:53;;;;;;;1.35;1.25;;;20.30;99.90;;;;;;4997971;28;20744;-65
2023/07/21 12:31:20;;;;;;;2.70;1.00;;;20.40;99.90;;;;;;5021724;28;20235;-65
2023/07/21 12:33:48;;;;;;;0.95;0.88;;;20.40;99.90;;;;;;5036676;28;20740;-66
2023/07/21 12:36:16;;;;;;;1.90;1.40;;;20.40;99.90;;;;;;5008310;28;20791;-65
2023/07/21 12:38:44;;;;;;;3.70;1.33;;;20.50;99.90;;;;;;5027737;28;20666;-64
2023/07/21 12:41:12;;;;;;;4.47;1.02;;;20.50;99.90;;;;;;5018657;28;20236;-64
2023/07/21 12:43:39;;;;;;;3.10;1.27;;;20.50;99.90;;;;;;5005548;28;20220;-65
2023/07/21 12:46:06;;;;;;;3.10;2.80;;;20.40;99.90;;;;;;5019046;28;20207;-65
2023/07/21 12:48:33;;;;;;;2.17;1.10;;;20.40;99.90;;;;;;5034317;28;20220;-64
2023/07/21 12:51:01;;;;;;;0.82;0.70;;;20.40;99.90;;;;;;5024683;28;20755;-64
2023/07/21 12:53:29;;;;;;;1.33;0.95;;;20.40;99.90;;;;;;5033575;28;20216;-64